sensor_id;sensor_type;location;lat;lon;timestamp;pressure;altitude;pressure_sealevel;temperature
20736;BMP180;10528;52.124;5.196;2023-07-30T00:02:23;100785.00;;;24.30
20736;BMP180;10528;52.124;5.196;2023-07-30T00:04:49;100786.00;;;24.30
20736;BMP180;10528;52.124;5.196;2023-07-30T00:07:17;100789.00;;;24.20
20736;BMP180;10528;52.124;5.196;2023-07-30T00:09:44;100784.00;;;24.20
20736;BMP180;10528;52.124;5.196;2023-07-30T00:12:11;100786.00;;;24.20
20736;BMP180;10528;52.124;5.196;2023-07-30T00:14:38;100790.00;;;24.20
20736;BMP180;10528;52.124;5.196;2023-07-30T00:17:05;100788.00;;;24.20
20736;BMP180;10528;52.124;5.196;2023-07-30T00:19:32;100796.00;;;24.20
20736;BMP180;10528;52.124;5.196;2023-07-30T00:21:59;100788.00;;;24.20
20736;BMP180;10528;52.124;5.196;2023-07-30T00:24:26;100792.00;;;24.20
20736;BMP180;10528;52.124;5.196;2023-07-30T00:26:53;100786.00;;;24.20
20736;BMP180;10528;52.124;5.196;2023-07-30T00:29:20;100789.00;;;24.10
20736;BMP180;10528;52.124;5.196;2023-07-30T00:31:47;100796.00;;;24.10
20736;BMP180;10528;52.124;5.196;2023-07-30T00:34:14;100795.00;;;24.10
20736;BMP180;10528;52.124;5.196;2023-07-30T00:36:41;100794.00;;;24.10
20736;BMP180;10528;52.124;5.196;2023-07-30T00:39:08;100790.00;;;24.10
20736;BMP180;10528;52.124;5.196;2023-07-30T00:41:37;100797.00;;;24.10
20736;BMP180;10528;52.124;5.196;2023-07-30T00:44:05;100796.00;;;24.00
20736;BMP180;10528;52.124;5.196;2023-07-30T00:46:33;100798.00;;;24.10
20736;BMP180;10528;52.124;5.196;2023-07-30T00:49:00;100787.00;;;24.00
20736;BMP180;10528;52.124;5.196;2023-07-30T00:51:29;100792.00;;;24.00
20736;BMP180;10528;52.124;5.196;2023-07-30T00:53:58;100790.00;;;24.00
20736;BMP180;10528;52.124;5.196;2023-07-30T00:56:26;100788.00;;;24.00
20736;BMP180;10528;52.124;5.196;2023-07-30T00:58:54;100795.00;;;24.00
20736;BMP180;10528;52.124;5.196;2023-07-30T01:01:21;100798.00;;;24.00
20736;BMP180;10528;52.124;5.196;2023-07-30T01:03:50;100801.00;;;24.00
20736;BMP180;10528;52.124;5.196;2023-07-30T01:06:18;100797.00;;;23.90
20736;BMP180;10528;52.124;5.196;2023-07-30T01:08:48;100796.00;;;23.90
20736;BMP180;10528;52.124;5.196;2023-07-30T01:11:16;100805.00;;;23.80
20736;BMP180;10528;52.124;5.196;2023-07-30T01:13:44;100801.00;;;23.80
20736;BMP180;10528;52.124;5.196;2023-07-30T01:16:14;100811.00;;;23.80
20736;BMP180;10528;52.124;5.196;2023-07-30T01:18:41;100801.00;;;23.80
20736;BMP180;10528;52.124;5.196;2023-07-30T01:21:08;100809.00;;;23.80
20736;BMP180;10528;52.124;5.196;2023-07-30T01:23:35;100816.00;;;23.80
20736;BMP180;10528;52.124;5.196;2023-07-30T01:26:12;100812.00;;;23.80
20736;BMP180;10528;52.124;5.196;2023-07-30T01:28:48;100811.00;;;23.80
20736;BMP180;10528;52.124;5.196;2023-07-30T01:31:17;100815.00;;;23.70
20736;BMP180;10528;52.124;5.196;2023-07-30T01:33:50;100822.00;;;23.80
20736;BMP180;10528;52.124;5.196;2023-07-30T01:36:20;100815.00;;;23.80
20736;BMP180;10528;52.124;5.196;2023-07-30T01:38:49;100808.00;;;23.80
20736;BMP180;10528;52.124;5.196;2023-07-30T01:41:17;100804.00;;;23.80
20736;BMP180;10528;52.124;5.196;2023-07-30T01:43:43;100805.00;;;23.80
20736;BMP180;10528;52.124;5.196;2023-07-30T01:46:10;100809.00;;;23.80
20736;BMP180;10528;52.124;5.196;2023-07-30T01:48:37;100813.00;;;23.80
20736;BMP180;10528;52.124;5.196;2023-07-30T01:51:04;100819.00;;;23.80
20736;BMP180;10528;52.124;5.196;2023-07-30T01:53:31;100812.00;;;23.90
20736;BMP180;10528;52.124;5.196;2023-07-30T01:55:58;100817.00;;;23.80
20736;BMP180;10528;52.124;5.196;2023-07-30T01:58:25;100817.00;;;23.80
20736;BMP180;10528;52.124;5.196;2023-07-30T02:00:52;100824.00;;;23.80
20736;BMP180;10528;52.124;5.196;2023-07-30T02:03:19;100817.00;;;23.80
20736;BMP180;10528;52.124;5.196;2023-07-30T02:05:46;100819.00;;;23.80
20736;BMP180;10528;52.124;5.196;2023-07-30T02:08:13;100817.00;;;23.80
20736;BMP180;10528;52.124;5.196;2023-07-30T02:10:42;100822.00;;;23.80
20736;BMP180;10528;52.124;5.196;2023-07-30T02:13:09;100815.00;;;23.80
20736;BMP180;10528;52.124;5.196;2023-07-30T02:15:40;100813.00;;;23.80
20736;BMP180;10528;52.124;5.196;2023-07-30T02:18:08;100821.00;;;23.80
20736;BMP180;10528;52.124;5.196;2023-07-30T02:20:37;100822.00;;;23.80
20736;BMP180;10528;52.124;5.196;2023-07-30T02:23:04;100816.00;;;23.80
20736;BMP180;10528;52.124;5.196;2023-07-30T02:25:31;100822.00;;;23.80
20736;BMP180;10528;52.124;5.196;2023-07-30T02:28:00;100814.00;;;23.80
20736;BMP180;10528;52.124;5.196;2023-07-30T02:30:28;100810.00;;;23.80
20736;BMP180;10528;52.124;5.196;2023-07-30T02:32:55;100816.00;;;23.70
20736;BMP180;10528;52.124;5.196;2023-07-30T02:35:22;100814.00;;;23.80
20736;BMP180;10528;52.124;5.196;2023-07-30T02:37:48;100814.00;;;23.80
20736;BMP180;10528;52.124;5.196;2023-07-30T02:40:15;100807.00;;;23.80
20736;BMP180;10528;52.124;5.196;2023-07-30T02:42:42;100807.00;;;23.80
20736;BMP180;10528;52.124;5.196;2023-07-30T02:45:10;100811.00;;;23.80
20736;BMP180;10528;52.124;5.196;2023-07-30T02:47:36;100809.00;;;23.60
20736;BMP180;10528;52.124;5.196;2023-07-30T02:50:05;100807.00;;;23.70
20736;BMP180;10528;52.124;5.196;2023-07-30T02:52:32;100808.00;;;23.70
20736;BMP180;10528;52.124;5.196;2023-07-30T02:54:59;100805.00;;;23.70
20736;BMP180;10528;52.124;5.196;2023-07-30T02:57:26;100811.00;;;23.60
20736;BMP180;10528;52.124;5.196;2023-07-30T02:59:53;100804.00;;;23.70
20736;BMP180;10528;52.124;5.196;2023-07-30T03:02:20;100806.00;;;23.60
20736;BMP180;10528;52.124;5.196;2023-07-30T03:04:47;100811.00;;;23.60
20736;BMP180;10528;52.124;5.196;2023-07-30T03:07:14;100799.00;;;23.60
20736;BMP180;10528;52.124;5.196;2023-07-30T03:09:41;100801.00;;;23.60
20736;BMP180;10528;52.124;5.196;2023-07-30T03:12:08;100798.00;;;23.60
20736;BMP180;10528;52.124;5.196;2023-07-30T03:14:35;100800.00;;;23.60
20736;BMP180;10528;52.124;5.196;2023-07-30T03:17:03;100797.00;;;23.50
20736;BMP180;10528;52.124;5.196;2023-07-30T03:19:32;100801.00;;;23.50
20736;BMP180;10528;52.124;5.196;2023-07-30T03:21:58;100803.00;;;23.50
20736;BMP180;10528;52.124;5.196;2023-07-30T03:24:25;100801.00;;;23.50
20736;BMP180;10528;52.124;5.196;2023-07-30T03:26:52;100814.00;;;23.50
20736;BMP180;10528;52.124;5.196;2023-07-30T03:29:19;100811.00;;;23.50
20736;BMP180;10528;52.124;5.196;2023-07-30T03:31:46;100820.00;;;23.50
20736;BMP180;10528;52.124;5.196;2023-07-30T03:34:13;100808.00;;;23.40
20736;BMP180;10528;52.124;5.196;2023-07-30T03:36:40;100812.00;;;23.40
20736;BMP180;10528;52.124;5.196;2023-07-30T03:39:07;100819.00;;;23.40
20736;BMP180;10528;52.124;5.196;2023-07-30T03:41:33;100806.00;;;23.40
20736;BMP180;10528;52.124;5.196;2023-07-30T03:44:02;100809.00;;;23.40
20736;BMP180;10528;52.124;5.196;2023-07-30T03:46:29;100817.00;;;23.30
20736;BMP180;10528;52.124;5.196;2023-07-30T03:48:56;100823.00;;;23.30
20736;BMP180;10528;52.124;5.196;2023-07-30T03:51:23;100828.00;;;23.40
20736;BMP180;10528;52.124;5.196;2023-07-30T03:53:50;100824.00;;;23.30
20736;BMP180;10528;52.124;5.196;2023-07-30T03:56:17;100821.00;;;23.30
20736;BMP180;10528;52.124;5.196;2023-07-30T03:58:44;100807.00;;;23.30
20736;BMP180;10528;52.124;5.196;2023-07-30T04:01:11;100821.00;;;23.30
20736;BMP180;10528;52.124;5.196;2023-07-30T04:03:38;100822.00;;;23.30
20736;BMP180;10528;52.124;5.196;2023-07-30T04:06:05;100822.00;;;23.30
20736;BMP180;10528;52.124;5.196;2023-07-30T04:08:32;100816.00;;;23.30
20736;BMP180;10528;52.124;5.196;2023-07-30T04:11:00;100821.00;;;23.30
20736;BMP180;10528;52.124;5.196;2023-07-30T04:13:27;100823.00;;;23.30
20736;BMP180;10528;52.124;5.196;2023-07-30T04:15:54;100833.00;;;23.30
20736;BMP180;10528;52.124;5.196;2023-07-30T04:18:20;100828.00;;;23.30
20736;BMP180;10528;52.124;5.196;2023-07-30T04:20:49;100830.00;;;23.30
20736;BMP180;10528;52.124;5.196;2023-07-30T04:23:16;100828.00;;;23.30
20736;BMP180;10528;52.124;5.196;2023-07-30T04:25:43;100835.00;;;23.30
20736;BMP180;10528;52.124;5.196;2023-07-30T04:28:10;100835.00;;;23.30
20736;BMP180;10528;52.124;5.196;2023-07-30T04:30:37;100825.00;;;23.30
20736;BMP180;10528;52.124;5.196;2023-07-30T04:33:04;100839.00;;;23.40
20736;BMP180;10528;52.124;5.196;2023-07-30T04:35:31;100838.00;;;23.40
20736;BMP180;10528;52.124;5.196;2023-07-30T04:37:59;100833.00;;;23.40
20736;BMP180;10528;52.124;5.196;2023-07-30T04:40:26;100846.00;;;23.40
20736;BMP180;10528;52.124;5.196;2023-07-30T04:42:53;100846.00;;;23.40
20736;BMP180;10528;52.124;5.196;2023-07-30T04:45:20;100846.00;;;23.40
20736;BMP180;10528;52.124;5.196;2023-07-30T04:47:49;100839.00;;;23.40
20736;BMP180;10528;52.124;5.196;2023-07-30T04:50:16;100847.00;;;23.40
20736;BMP180;10528;52.124;5.196;2023-07-30T04:52:43;100837.00;;;23.40
20736;BMP180;10528;52.124;5.196;2023-07-30T04:55:10;100839.00;;;23.50
20736;BMP180;10528;52.124;5.196;2023-07-30T04:57:36;100845.00;;;23.50
20736;BMP180;10528;52.124;5.196;2023-07-30T05:00:04;100846.00;;;23.50
20736;BMP180;10528;52.124;5.196;2023-07-30T05:02:31;100832.00;;;23.50
20736;BMP180;10528;52.124;5.196;2023-07-30T05:04:58;100850.00;;;23.60
20736;BMP180;10528;52.124;5.196;2023-07-30T05:07:25;100851.00;;;23.60
20736;BMP180;10528;52.124;5.196;2023-07-30T05:09:52;100853.00;;;23.60
20736;BMP180;10528;52.124;5.196;2023-07-30T05:12:19;100844.00;;;23.60
20736;BMP180;10528;52.124;5.196;2023-07-30T05:14:46;100854.00;;;23.70
20736;BMP180;10528;52.124;5.196;2023-07-30T05:17:13;100851.00;;;23.70
20736;BMP180;10528;52.124;5.196;2023-07-30T05:19:40;100848.00;;;23.70
20736;BMP180;10528;52.124;5.196;2023-07-30T05:22:07;100848.00;;;23.70
20736;BMP180;10528;52.124;5.196;2023-07-30T05:24:34;100850.00;;;23.80
20736;BMP180;10528;52.124;5.196;2023-07-30T05:27:04;100855.00;;;23.80
20736;BMP180;10528;52.124;5.196;2023-07-30T05:29:31;100851.00;;;23.80
20736;BMP180;10528;52.124;5.196;2023-07-30T05:31:58;100856.00;;;23.80
20736;BMP180;10528;52.124;5.196;2023-07-30T05:34:25;100856.00;;;23.80
20736;BMP180;10528;52.124;5.196;2023-07-30T05:36:52;100851.00;;;23.70
20736;BMP180;10528;52.124;5.196;2023-07-30T05:39:19;100857.00;;;23.80
20736;BMP180;10528;52.124;5.196;2023-07-30T05:41:46;100858.00;;;23.80
20736;BMP180;10528;52.124;5.196;2023-07-30T05:44:13;100861.00;;;23.90
20736;BMP180;10528;52.124;5.196;2023-07-30T05:46:40;100852.00;;;23.90
20736;BMP180;10528;52.124;5.196;2023-07-30T05:49:07;100857.00;;;23.90
20736;BMP180;10528;52.124;5.196;2023-07-30T05:51:34;100849.00;;;24.00
20736;BMP180;10528;52.124;5.196;2023-07-30T05:54:01;100862.00;;;24.10
20736;BMP180;10528;52.124;5.196;2023-07-30T05:56:27;100861.00;;;24.10
20736;BMP180;10528;52.124;5.196;2023-07-30T05:58:54;100862.00;;;24.10
20736;BMP180;10528;52.124;5.196;2023-07-30T06:01:21;100863.00;;;24.20
20736;BMP180;10528;52.124;5.196;2023-07-30T06:03:48;100870.00;;;24.20
20736;BMP180;10528;52.124;5.196;2023-07-30T06:06:16;100857.00;;;24.20
20736;BMP180;10528;52.124;5.196;2023-07-30T06:08:43;100865.00;;;24.20
20736;BMP180;10528;52.124;5.196;2023-07-30T06:11:10;100870.00;;;24.30
20736;BMP180;10528;52.124;5.196;2023-07-30T06:13:37;100871.00;;;24.20
20736;BMP180;10528;52.124;5.196;2023-07-30T06:16:04;100860.00;;;24.10
20736;BMP180;10528;52.124;5.196;2023-07-30T06:18:31;100867.00;;;24.20
20736;BMP180;10528;52.124;5.196;2023-07-30T06:20:58;100857.00;;;24.30
20736;BMP180;10528;52.124;5.196;2023-07-30T06:23:25;100863.00;;;24.40
20736;BMP180;10528;52.124;5.196;2023-07-30T06:25:52;100869.00;;;24.40
20736;BMP180;10528;52.124;5.196;2023-07-30T06:28:19;100875.00;;;24.50
20736;BMP180;10528;52.124;5.196;2023-07-30T06:30:46;100874.00;;;24.40
20736;BMP180;10528;52.124;5.196;2023-07-30T06:33:13;100866.00;;;24.50
20736;BMP180;10528;52.124;5.196;2023-07-30T06:35:40;100861.00;;;24.50
20736;BMP180;10528;52.124;5.196;2023-07-30T06:38:08;100861.00;;;24.50
20736;BMP180;10528;52.124;5.196;2023-07-30T06:40:36;100860.00;;;24.60
20736;BMP180;10528;52.124;5.196;2023-07-30T06:43:02;100846.00;;;24.60
20736;BMP180;10528;52.124;5.196;2023-07-30T06:45:29;100851.00;;;24.60
20736;BMP180;10528;52.124;5.196;2023-07-30T06:47:56;100864.00;;;24.50
20736;BMP180;10528;52.124;5.196;2023-07-30T06:50:23;100862.00;;;24.60
20736;BMP180;10528;52.124;5.196;2023-07-30T06:52:50;100863.00;;;24.40
20736;BMP180;10528;52.124;5.196;2023-07-30T06:55:18;100861.00;;;24.10
20736;BMP180;10528;52.124;5.196;2023-07-30T06:57:44;100865.00;;;24.20
20736;BMP180;10528;52.124;5.196;2023-07-30T07:00:13;100860.00;;;24.00
20736;BMP180;10528;52.124;5.196;2023-07-30T07:02:40;100864.00;;;24.20
20736;BMP180;10528;52.124;5.196;2023-07-30T07:05:07;100879.00;;;24.20
20736;BMP180;10528;52.124;5.196;2023-07-30T07:07:34;100877.00;;;24.30
20736;BMP180;10528;52.124;5.196;2023-07-30T07:10:01;100878.00;;;24.20
20736;BMP180;10528;52.124;5.196;2023-07-30T07:12:28;100879.00;;;24.40
20736;BMP180;10528;52.124;5.196;2023-07-30T07:14:55;100878.00;;;24.50
20736;BMP180;10528;52.124;5.196;2023-07-30T07:17:25;100883.00;;;24.50
20736;BMP180;10528;52.124;5.196;2023-07-30T07:19:52;100869.00;;;24.40
20736;BMP180;10528;52.124;5.196;2023-07-30T07:22:18;100867.00;;;24.60
20736;BMP180;10528;52.124;5.196;2023-07-30T07:24:46;100871.00;;;24.30
20736;BMP180;10528;52.124;5.196;2023-07-30T07:27:13;100866.00;;;24.50
20736;BMP180;10528;52.124;5.196;2023-07-30T07:29:39;100869.00;;;24.50
20736;BMP180;10528;52.124;5.196;2023-07-30T07:32:07;100875.00;;;24.30
20736;BMP180;10528;52.124;5.196;2023-07-30T07:34:34;100874.00;;;24.70
20736;BMP180;10528;52.124;5.196;2023-07-30T07:37:02;100884.00;;;24.80
20736;BMP180;10528;52.124;5.196;2023-07-30T07:39:29;100870.00;;;24.80
20736;BMP180;10528;52.124;5.196;2023-07-30T07:41:56;100877.00;;;25.10
20736;BMP180;10528;52.124;5.196;2023-07-30T07:44:23;100874.00;;;25.20
20736;BMP180;10528;52.124;5.196;2023-07-30T07:46:50;100877.00;;;25.10
20736;BMP180;10528;52.124;5.196;2023-07-30T07:49:17;100874.00;;;24.90
20736;BMP180;10528;52.124;5.196;2023-07-30T07:51:44;100884.00;;;24.60
20736;BMP180;10528;52.124;5.196;2023-07-30T07:54:11;100882.00;;;24.70
20736;BMP180;10528;52.124;5.196;2023-07-30T07:56:37;100879.00;;;24.70
20736;BMP180;10528;52.124;5.196;2023-07-30T07:59:04;100891.00;;;25.20
20736;BMP180;10528;52.124;5.196;2023-07-30T08:01:31;100883.00;;;25.20
20736;BMP180;10528;52.124;5.196;2023-07-30T08:03:58;100894.00;;;25.00
20736;BMP180;10528;52.124;5.196;2023-07-30T08:06:25;100881.00;;;25.20
20736;BMP180;10528;52.124;5.196;2023-07-30T08:08:52;100887.00;;;25.20
20736;BMP180;10528;52.124;5.196;2023-07-30T08:11:19;100874.00;;;24.90
20736;BMP180;10528;52.124;5.196;2023-07-30T08:13:46;100879.00;;;25.00
20736;BMP180;10528;52.124;5.196;2023-07-30T08:16:13;100879.00;;;23.90
20736;BMP180;10528;52.124;5.196;2023-07-30T08:18:40;100886.00;;;24.30
20736;BMP180;10528;52.124;5.196;2023-07-30T08:21:07;100890.00;;;24.70
20736;BMP180;10528;52.124;5.196;2023-07-30T08:23:34;100892.00;;;24.60
20736;BMP180;10528;52.124;5.196;2023-07-30T08:26:01;100892.00;;;24.40
20736;BMP180;10528;52.124;5.196;2023-07-30T08:28:28;100886.00;;;24.40
20736;BMP180;10528;52.124;5.196;2023-07-30T08:31:01;100889.00;;;24.00
20736;BMP180;10528;52.124;5.196;2023-07-30T08:33:29;100883.00;;;24.00
20736;BMP180;10528;52.124;5.196;2023-07-30T08:35:56;100885.00;;;24.30
20736;BMP180;10528;52.124;5.196;2023-07-30T08:38:24;100884.00;;;24.60
20736;BMP180;10528;52.124;5.196;2023-07-30T08:40:51;100875.00;;;24.40
20736;BMP180;10528;52.124;5.196;2023-07-30T08:43:19;100886.00;;;24.20
20736;BMP180;10528;52.124;5.196;2023-07-30T08:45:46;100897.00;;;24.60
20736;BMP180;10528;52.124;5.196;2023-07-30T08:48:13;100872.00;;;24.30
20736;BMP180;10528;52.124;5.196;2023-07-30T08:50:41;100886.00;;;24.50
20736;BMP180;10528;52.124;5.196;2023-07-30T08:53:09;100889.00;;;24.40
20736;BMP180;10528;52.124;5.196;2023-07-30T08:55:36;100875.00;;;24.40
20736;BMP180;10528;52.124;5.196;2023-07-30T08:58:06;100890.00;;;24.50
20736;BMP180;10528;52.124;5.196;2023-07-30T09:00:36;100890.00;;;24.80
20736;BMP180;10528;52.124;5.196;2023-07-30T09:03:06;100900.00;;;24.80
20736;BMP180;10528;52.124;5.196;2023-07-30T09:05:33;100893.00;;;25.20
20736;BMP180;10528;52.124;5.196;2023-07-30T09:08:00;100891.00;;;25.40
20736;BMP180;10528;52.124;5.196;2023-07-30T09:10:27;100882.00;;;25.30
20736;BMP180;10528;52.124;5.196;2023-07-30T09:12:56;100896.00;;;25.40
20736;BMP180;10528;52.124;5.196;2023-07-30T09:15:36;100912.00;;;25.50
20736;BMP180;10528;52.124;5.196;2023-07-30T09:18:07;100910.00;;;25.50
20736;BMP180;10528;52.124;5.196;2023-07-30T09:20:40;100924.00;;;25.50
20736;BMP180;10528;52.124;5.196;2023-07-30T09:23:09;100926.00;;;25.70
20736;BMP180;10528;52.124;5.196;2023-07-30T09:25:37;100923.00;;;25.20
20736;BMP180;10528;52.124;5.196;2023-07-30T09:28:06;100920.00;;;25.30
20736;BMP180;10528;52.124;5.196;2023-07-30T09:30:33;100921.00;;;25.50
20736;BMP180;10528;52.124;5.196;2023-07-30T09:33:00;100932.00;;;25.30
20736;BMP180;10528;52.124;5.196;2023-07-30T09:35:27;100932.00;;;25.30
20736;BMP180;10528;52.124;5.196;2023-07-30T09:38:00;100933.00;;;25.50
20736;BMP180;10528;52.124;5.196;2023-07-30T09:40:34;100938.00;;;25.30
20736;BMP180;10528;52.124;5.196;2023-07-30T09:43:03;100933.00;;;25.50
20736;BMP180;10528;52.124;5.196;2023-07-30T09:45:35;100928.00;;;25.50
20736;BMP180;10528;52.124;5.196;2023-07-30T09:48:05;100934.00;;;25.40
20736;BMP180;10528;52.124;5.196;2023-07-30T09:50:33;100939.00;;;25.70
20736;BMP180;10528;52.124;5.196;2023-07-30T09:53:01;100943.00;;;25.40
20736;BMP180;10528;52.124;5.196;2023-07-30T09:55:29;100944.00;;;25.80
20736;BMP180;10528;52.124;5.196;2023-07-30T09:57:55;100946.00;;;26.00
20736;BMP180;10528;52.124;5.196;2023-07-30T10:00:23;100959.00;;;26.30
20736;BMP180;10528;52.124;5.196;2023-07-30T10:02:55;100950.00;;;26.20
20736;BMP180;10528;52.124;5.196;2023-07-30T10:05:29;100959.00;;;25.90
20736;BMP180;10528;52.124;5.196;2023-07-30T10:08:19;100976.00;;;25.80
20736;BMP180;10528;52.124;5.196;2023-07-30T10:10:50;100967.00;;;25.80
20736;BMP180;10528;52.124;5.196;2023-07-30T10:13:19;100967.00;;;25.80
20736;BMP180;10528;52.124;5.196;2023-07-30T10:15:47;100966.00;;;26.10
20736;BMP180;10528;52.124;5.196;2023-07-30T10:18:14;100968.00;;;25.90
20736;BMP180;10528;52.124;5.196;2023-07-30T10:20:52;100971.00;;;25.90
20736;BMP180;10528;52.124;5.196;2023-07-30T10:23:20;100972.00;;;26.20
20736;BMP180;10528;52.124;5.196;2023-07-30T10:25:49;100974.00;;;26.20
20736;BMP180;10528;52.124;5.196;2023-07-30T10:31:02;100969.00;;;26.20
20736;BMP180;10528;52.124;5.196;2023-07-30T10:33:49;100977.00;;;26.00
20736;BMP180;10528;52.124;5.196;2023-07-30T10:36:32;100977.00;;;25.80
20736;BMP180;10528;52.124;5.196;2023-07-30T10:39:17;100969.00;;;25.40
20736;BMP180;10528;52.124;5.196;2023-07-30T10:41:50;100979.00;;;26.00
20736;BMP180;10528;52.124;5.196;2023-07-30T10:44:34;100982.00;;;25.80
20736;BMP180;10528;52.124;5.196;2023-07-30T10:47:02;100970.00;;;26.00
20736;BMP180;10528;52.124;5.196;2023-07-30T10:49:37;100981.00;;;25.70
20736;BMP180;10528;52.124;5.196;2023-07-30T10:52:13;100979.00;;;26.20
20736;BMP180;10528;52.124;5.196;2023-07-30T10:54:42;100986.00;;;26.40
20736;BMP180;10528;52.124;5.196;2023-07-30T10:57:09;100979.00;;;26.80
20736;BMP180;10528;52.124;5.196;2023-07-30T10:59:38;100978.00;;;26.80
20736;BMP180;10528;52.124;5.196;2023-07-30T11:02:05;100980.00;;;26.70
20736;BMP180;10528;52.124;5.196;2023-07-30T11:04:34;100999.00;;;26.40
20736;BMP180;10528;52.124;5.196;2023-07-30T11:07:02;100990.00;;;26.50
20736;BMP180;10528;52.124;5.196;2023-07-30T11:09:30;100998.00;;;26.10
20736;BMP180;10528;52.124;5.196;2023-07-30T11:11:57;100989.00;;;26.60
20736;BMP180;10528;52.124;5.196;2023-07-30T11:14:25;100993.00;;;26.00
20736;BMP180;10528;52.124;5.196;2023-07-30T11:16:56;100998.00;;;26.00
20736;BMP180;10528;52.124;5.196;2023-07-30T11:19:28;101008.00;;;25.60
20736;BMP180;10528;52.124;5.196;2023-07-30T11:21:57;101011.00;;;25.20
20736;BMP180;10528;52.124;5.196;2023-07-30T11:24:35;101010.00;;;25.20
20736;BMP180;10528;52.124;5.196;2023-07-30T11:27:03;101017.00;;;25.30
20736;BMP180;10528;52.124;5.196;2023-07-30T11:29:30;101023.00;;;25.60
20736;BMP180;10528;52.124;5.196;2023-07-30T11:31:59;101018.00;;;25.90
20736;BMP180;10528;52.124;5.196;2023-07-30T11:34:27;101021.00;;;26.00
20736;BMP180;10528;52.124;5.196;2023-07-30T11:36:57;101011.00;;;26.20
20736;BMP180;10528;52.124;5.196;2023-07-30T11:39:25;101011.00;;;26.00
20736;BMP180;10528;52.124;5.196;2023-07-30T11:41:52;101016.00;;;25.60
20736;BMP180;10528;52.124;5.196;2023-07-30T11:44:34;101025.00;;;25.90
20736;BMP180;10528;52.124;5.196;2023-07-30T11:47:01;101008.00;;;26.30
20736;BMP180;10528;52.124;5.196;2023-07-30T11:49:30;101020.00;;;26.40
20736;BMP180;10528;52.124;5.196;2023-07-30T11:52:07;101019.00;;;26.40
20736;BMP180;10528;52.124;5.196;2023-07-30T11:54:36;101013.00;;;26.60
20736;BMP180;10528;52.124;5.196;2023-07-30T11:57:03;101027.00;;;26.70
20736;BMP180;10528;52.124;5.196;2023-07-30T11:59:33;101033.00;;;26.30
20736;BMP180;10528;52.124;5.196;2023-07-30T12:02:00;101017.00;;;26.80
20736;BMP180;10528;52.124;5.196;2023-07-30T12:04:44;101032.00;;;26.20
20736;BMP180;10528;52.124;5.196;2023-07-30T12:07:23;101026.00;;;25.90
20736;BMP180;10528;52.124;5.196;2023-07-30T12:09:53;101024.00;;;26.60
20736;BMP180;10528;52.124;5.196;2023-07-30T12:12:25;101028.00;;;26.30
20736;BMP180;10528;52.124;5.196;2023-07-30T12:14:54;101039.00;;;26.30
20736;BMP180;10528;52.124;5.196;2023-07-30T12:17:22;101022.00;;;26.60
20736;BMP180;10528;52.124;5.196;2023-07-30T12:19:48;101037.00;;;26.40
20736;BMP180;10528;52.124;5.196;2023-07-30T12:22:15;101032.00;;;26.50
20736;BMP180;10528;52.124;5.196;2023-07-30T12:24:42;101041.00;;;26.30
20736;BMP180;10528;52.124;5.196;2023-07-30T12:27:09;101028.00;;;26.20
20736;BMP180;10528;52.124;5.196;2023-07-30T12:29:36;101035.00;;;26.10
20736;BMP180;10528;52.124;5.196;2023-07-30T12:32:03;101047.00;;;26.10
20736;BMP180;10528;52.124;5.196;2023-07-30T12:34:30;101037.00;;;25.90
20736;BMP180;10528;52.124;5.196;2023-07-30T12:36:57;101038.00;;;25.60
20736;BMP180;10528;52.124;5.196;2023-07-30T12:39:25;101028.00;;;26.00
20736;BMP180;10528;52.124;5.196;2023-07-30T12:41:52;101039.00;;;25.90
20736;BMP180;10528;52.124;5.196;2023-07-30T12:44:19;101047.00;;;26.40
20736;BMP180;10528;52.124;5.196;2023-07-30T12:46:46;101043.00;;;26.30
20736;BMP180;10528;52.124;5.196;2023-07-30T12:49:13;101042.00;;;26.90
20736;BMP180;10528;52.124;5.196;2023-07-30T12:51:40;101049.00;;;26.80
20736;BMP180;10528;52.124;5.196;2023-07-30T12:54:08;101054.00;;;26.60
20736;BMP180;10528;52.124;5.196;2023-07-30T12:56:36;101046.00;;;26.30
20736;BMP180;10528;52.124;5.196;2023-07-30T12:59:03;101030.00;;;26.40
20736;BMP180;10528;52.124;5.196;2023-07-30T13:01:30;101041.00;;;26.70
20736;BMP180;10528;52.124;5.196;2023-07-30T13:03:58;101037.00;;;26.80
20736;BMP180;10528;52.124;5.196;2023-07-30T13:06:25;101044.00;;;26.40
20736;BMP180;10528;52.124;5.196;2023-07-30T13:08:52;101044.00;;;26.80
20736;BMP180;10528;52.124;5.196;2023-07-30T13:11:20;101052.00;;;26.70
20736;BMP180;10528;52.124;5.196;2023-07-30T13:13:47;101053.00;;;26.50
20736;BMP180;10528;52.124;5.196;2023-07-30T13:16:14;101043.00;;;26.30
20736;BMP180;10528;52.124;5.196;2023-07-30T13:18:42;101056.00;;;26.80
20736;BMP180;10528;52.124;5.196;2023-07-30T13:21:09;101065.00;;;26.90
20736;BMP180;10528;52.124;5.196;2023-07-30T13:23:36;101061.00;;;26.70
20736;BMP180;10528;52.124;5.196;2023-07-30T13:26:03;101058.00;;;26.50
20736;BMP180;10528;52.124;5.196;2023-07-30T13:28:30;101061.00;;;26.20
20736;BMP180;10528;52.124;5.196;2023-07-30T13:30:57;101054.00;;;26.50
20736;BMP180;10528;52.124;5.196;2023-07-30T13:33:25;101065.00;;;26.40
20736;BMP180;10528;52.124;5.196;2023-07-30T13:35:51;101068.00;;;26.50
20736;BMP180;10528;52.124;5.196;2023-07-30T13:38:18;101073.00;;;26.30
20736;BMP180;10528;52.124;5.196;2023-07-30T13:40:48;101055.00;;;26.20
20736;BMP180;10528;52.124;5.196;2023-07-30T13:43:15;101050.00;;;26.00
20736;BMP180;10528;52.124;5.196;2023-07-30T13:45:42;101063.00;;;25.80
20736;BMP180;10528;52.124;5.196;2023-07-30T13:48:09;101057.00;;;25.70
20736;BMP180;10528;52.124;5.196;2023-07-30T13:50:36;101057.00;;;25.60
20736;BMP180;10528;52.124;5.196;2023-07-30T13:53:03;101064.00;;;25.90
20736;BMP180;10528;52.124;5.196;2023-07-30T13:55:30;101055.00;;;26.00
20736;BMP180;10528;52.124;5.196;2023-07-30T13:57:57;101058.00;;;26.10
20736;BMP180;10528;52.124;5.196;2023-07-30T14:00:24;101075.00;;;26.40
20736;BMP180;10528;52.124;5.196;2023-07-30T14:02:51;101076.00;;;26.40
20736;BMP180;10528;52.124;5.196;2023-07-30T14:05:18;101075.00;;;26.00